createdAt,value
2023-01-23T00:00:20.417Z,47.9
2023-01-23T00:05:28.387Z,47.9
2023-01-23T00:10:51.187Z,47.9
2023-01-23T00:16:14.916Z,47.8
2023-01-23T00:21:37.500Z,47.8
2023-01-23T00:27:03.234Z,47.8
2023-01-23T00:32:27.352Z,47.7
2023-01-23T00:37:50.239Z,47.7
2023-01-23T00:42:57.146Z,47.6
2023-01-23T00:48:26.533Z,47.6
2023-01-23T00:53:33.590Z,47.6
2023-01-23T00:58:56.036Z,47.6
2023-01-23T01:04:20.874Z,47.5
2023-01-23T01:08:57.498Z,47.5
2023-01-23T01:14:20.601Z,47.4
2023-01-23T01:19:43.606Z,47.4
2023-01-23T01:25:06.192Z,47.4
2023-01-23T01:30:29.185Z,47.4
2023-01-23T01:35:53.573Z,47.3
2023-01-23T01:41:16.092Z,47.3
2023-01-23T01:46:39.310Z,47.3
2023-01-23T01:52:03.053Z,47.3
2023-01-23T01:57:09.409Z,47.2
2023-01-23T02:02:01.371Z,47.2
2023-01-23T02:07:24.931Z,47.1
2023-01-23T02:12:32.291Z,47.1
2023-01-23T02:17:55.377Z,47.1
2023-01-23T02:23:05.792Z,47
2023-01-23T02:28:28.503Z,47.6
2023-01-23T02:33:52.164Z,48.9
2023-01-23T02:39:15.586Z,50.3
2023-01-23T02:44:39.148Z,52
2023-01-23T02:49:46.948Z,53.4
2023-01-23T02:55:10.470Z,55
2023-01-23T03:00:33.438Z,56.6
2023-01-23T03:05:56.522Z,58.1
2023-01-23T03:11:19.915Z,59.4
2023-01-23T03:16:26.814Z,59.4
2023-01-23T03:21:48.087Z,59.4
2023-01-23T03:26:56.155Z,59.4
2023-01-23T03:32:19.733Z,59.4
2023-01-23T03:37:42.355Z,60.3
2023-01-23T03:42:50.370Z,60.8
2023-01-23T03:47:57.845Z,60.8
2023-01-23T03:53:05.476Z,60.8
2023-01-23T03:57:56.935Z,60.8
2023-01-23T04:02:49.838Z,60.8
2023-01-23T04:07:57.246Z,60.7
2023-01-23T04:13:27.352Z,60.6
2023-01-23T04:18:19.129Z,60.6
2023-01-23T04:23:41.536Z,60.6
2023-01-23T04:29:04.575Z,60.5
2023-01-23T04:34:28.566Z,60.5
2023-01-23T04:39:51.891Z,60.4
2023-01-23T04:45:16.351Z,60.4
2023-01-23T04:50:39.620Z,60.4
2023-01-23T04:55:46.376Z,60.3
2023-01-23T05:00:54.846Z,60.3
2023-01-23T05:06:18.607Z,60.2
2023-01-23T05:11:44.352Z,60.2
2023-01-23T05:16:51.967Z,60.1
2023-01-23T05:22:00.175Z,60.1
2023-01-23T05:27:07.356Z,60.1
2023-01-23T05:32:30.799Z,60
2023-01-23T05:37:41.567Z,59.9
2023-01-23T05:43:05.870Z,59.9
2023-01-23T05:48:13.437Z,59.9
2023-01-23T05:53:21.899Z,59.8
2023-01-23T05:58:47.520Z,59.8
2023-01-23T06:03:55.224Z,59.7
2023-01-23T06:08:47.543Z,59.7
2023-01-23T06:13:55.142Z,59.6
2023-01-23T06:19:20.939Z,59.6
2023-01-23T06:24:29.518Z,59.5
2023-01-23T06:29:52.571Z,59.5
2023-01-23T06:35:19.615Z,59.4
2023-01-23T06:40:27.957Z,59.4
2023-01-23T06:45:53.559Z,59.3
2023-01-23T06:51:17.039Z,59.3
2023-01-23T06:56:40.895Z,59.3
2023-01-23T07:02:04.336Z,59.2
2023-01-23T07:07:27.298Z,59.2
2023-01-23T07:12:50.574Z,59.1
2023-01-23T07:18:16.292Z,59.1
2023-01-23T07:23:38.587Z,59
2023-01-23T07:28:46.787Z,59
2023-01-23T07:34:12.133Z,58.9
2023-01-23T07:39:34.904Z,58.9
2023-01-23T07:44:58.205Z,58.8
2023-01-23T07:50:22.182Z,58.8
2023-01-23T07:55:47.975Z,58.8
2023-01-23T08:01:16.814Z,58.7
2023-01-23T08:06:24.277Z,58.6
2023-01-23T08:11:56.574Z,58.6
2023-01-23T08:22:27.708Z,58.5
2023-01-23T08:27:34.554Z,58.5
2023-01-23T08:32:58.695Z,58.4
2023-01-23T08:38:06.859Z,58.4
2023-01-23T08:43:30.699Z,58.4
2023-01-23T08:48:54.377Z,58.3
2023-01-23T08:54:18.524Z,58.3
2023-01-23T08:59:43.287Z,58.3
2023-01-23T09:05:07.529Z,58.2
2023-01-23T09:10:16.050Z,58.1
2023-01-23T09:15:23.385Z,58.1
2023-01-23T09:20:47.735Z,58.1
2023-01-23T09:26:11.402Z,58
2023-01-23T09:31:35.172Z,57.9
2023-01-23T09:37:14.881Z,57.9
2023-01-23T09:42:24.922Z,57.9
2023-01-23T09:47:48.422Z,57.8
2023-01-23T10:03:43.807Z,57.7
2023-01-23T10:09:07.850Z,57.6
2023-01-23T10:14:35.880Z,57.6
2023-01-23T10:20:19.197Z,57.6
2023-01-23T10:25:52.091Z,57.5
2023-01-23T10:31:15.135Z,57.5
2023-01-23T10:36:48.095Z,57.4
2023-01-23T10:42:19.706Z,57.4
2023-01-23T10:47:54.530Z,57.3
2023-01-23T10:53:23.704Z,57.3
2023-01-23T10:59:07.590Z,57.3
2023-01-23T11:04:22.698Z,57.2
2023-01-23T11:09:53.579Z,57.1
2023-01-23T11:15:19.271Z,57.1
2023-01-23T11:20:42.522Z,57.1
2023-01-23T11:26:19.651Z,57
2023-01-23T11:31:46.592Z,56.9
2023-01-23T11:37:10.176Z,56.9
2023-01-23T11:42:40.427Z,56.9
2023-01-23T11:48:13.614Z,56.8
2023-01-23T11:53:41.043Z,56.8
2023-01-23T11:58:56.216Z,56.8
2023-01-23T12:04:40.269Z,56.6
2023-01-23T12:10:19.002Z,56.6
2023-01-23T12:15:42.454Z,56.6
2023-01-23T12:20:51.049Z,56.5
2023-01-23T12:26:15.667Z,56.4
2023-01-23T12:31:39.330Z,56.4
2023-01-23T12:37:30.258Z,56.4
2023-01-23T12:42:55.460Z,56.3
2023-01-23T12:48:18.452Z,56.3
2023-01-23T12:53:43.267Z,56.3
2023-01-23T12:59:31.883Z,56.2
2023-01-23T13:05:09.360Z,56.1
2023-01-23T13:10:53.336Z,56.1
2023-01-23T13:16:47.550Z,56
2023-01-23T13:22:11.323Z,55.9
2023-01-23T13:27:40.697Z,55.9
2023-01-23T13:33:18.527Z,55.9
2023-01-23T13:38:49.980Z,55.8
2023-01-23T13:44:27.027Z,55.8
2023-01-23T13:49:41.062Z,55.8
2023-01-23T13:55:04.721Z,55.7
2023-01-23T14:00:28.420Z,55.6
2023-01-23T14:05:50.861Z,55.6
2023-01-23T14:11:14.340Z,55.5
2023-01-23T14:16:38.424Z,55.5
2023-01-23T14:22:14.557Z,55.4
2023-01-23T14:27:54.126Z,55.4
2023-01-23T14:33:19.801Z,55.3
2023-01-23T14:38:36.523Z,55.3
2023-01-23T14:44:42.210Z,55.3
2023-01-23T14:50:22.764Z,55.2
2023-01-23T14:56:05.958Z,55.1
2023-01-23T15:01:29.756Z,55.1
2023-01-23T15:07:04.683Z,55.1
2023-01-23T15:12:28.177Z,55
2023-01-23T15:17:51.700Z,54.9
2023-01-23T15:23:15.908Z,54.9
2023-01-23T15:28:51.625Z,54.8
2023-01-23T15:34:16.366Z,54.8
2023-01-23T15:39:40.982Z,54.8
2023-01-23T15:45:18.548Z,54.7
2023-01-23T15:50:49.927Z,54.7
2023-01-23T15:56:14.057Z,54.6
2023-01-23T16:01:50.392Z,54.6
2023-01-23T16:07:30.531Z,54.5
2023-01-23T16:13:02.427Z,54.4
2023-01-23T16:18:22.777Z,54.4
2023-01-23T16:24:20.568Z,54.3
2023-01-23T16:30:02.007Z,54.3
2023-01-23T16:35:25.882Z,54.3
2023-01-23T16:40:49.446Z,54.2
2023-01-23T16:46:13.661Z,54.1
2023-01-23T16:51:54.442Z,54.1
2023-01-23T16:57:30.497Z,54.1
2023-01-23T17:03:09.297Z,54
2023-01-23T17:08:33.045Z,53.9
2023-01-23T17:13:55.390Z,53.9
2023-01-23T17:18:46.717Z,53.9
2023-01-23T17:23:54.677Z,53.8
2023-01-23T17:29:40.890Z,53.8
2023-01-23T17:35:11.530Z,53.8
2023-01-23T17:40:34.804Z,53.7
2023-01-23T17:45:59.864Z,53.7
2023-01-23T17:51:08.192Z,53.6
2023-01-23T17:56:34.002Z,53.6
2023-01-23T18:01:59.796Z,53.6
2023-01-23T18:07:25.152Z,53.5
2023-01-23T18:12:44.922Z,53.4
2023-01-23T18:18:16.918Z,53.4
2023-01-23T18:23:30.675Z,53.4
2023-01-23T18:28:26.497Z,53.3
2023-01-23T18:33:26.068Z,53.3
2023-01-23T18:38:44.689Z,53.3
2023-01-23T18:44:02.545Z,53.2
2023-01-23T18:50:06.793Z,53.2
2023-01-23T18:55:44.056Z,53.1
2023-01-23T19:01:34.702Z,53.1
2023-01-23T19:07:16.418Z,53.1
2023-01-23T19:13:04.595Z,53
2023-01-23T19:18:31.581Z,52.9
2023-01-23T19:24:19.723Z,52.9
2023-01-23T19:30:12.337Z,52.8
2023-01-23T19:35:49.834Z,52.8
2023-01-23T19:41:25.501Z,52.8
2023-01-23T19:47:27.522Z,52.7
2023-01-23T19:53:05.721Z,52.7
2023-01-23T19:58:12.625Z,52.6
2023-01-23T20:03:33.761Z,52.6
2023-01-23T20:08:32.182Z,52.5
2023-01-23T20:14:01.767Z,52.4
2023-01-23T20:19:30.750Z,52.3
2023-01-23T20:25:01.864Z,52.3
2023-01-23T20:30:32.868Z,52.3
2023-01-23T20:35:46.247Z,52.3
2023-01-23T20:41:11.595Z,52.2
2023-01-23T20:46:37.312Z,52.1
2023-01-23T20:52:02.384Z,52.1
2023-01-23T20:57:30.297Z,52.1
2023-01-23T21:02:56.307Z,52
2023-01-23T21:17:52.856Z,51.9
2023-01-23T21:23:18.303Z,51.9
2023-01-23T21:28:41.328Z,51.8
2023-01-23T21:34:04.069Z,51.8
2023-01-23T21:39:12.851Z,51.8
2023-01-23T21:44:35.988Z,51.6
2023-01-23T21:49:57.903Z,51.3
2023-01-23T21:54:51.323Z,51.1
2023-01-23T22:00:14.320Z,50.9
2023-01-23T22:05:37.543Z,50.9
2023-01-23T22:11:02.086Z,50.8
2023-01-23T22:16:45.545Z,50.7
2023-01-23T22:22:09.411Z,50.6
2023-01-23T22:27:33.935Z,50.6
2023-01-23T22:32:58.490Z,50.5
2023-01-23T22:38:29.951Z,50.5
2023-01-23T22:43:54.625Z,50.4
2023-01-23T22:49:18.337Z,50.4
2023-01-23T22:54:43.570Z,50.3
2023-01-23T22:59:52.149Z,50.3
2023-01-23T23:05:16.102Z,50.3
2023-01-23T23:10:07.343Z,50.2
2023-01-23T23:15:15.671Z,50.2
2023-01-23T23:20:23.675Z,50.1
2023-01-23T23:25:30.632Z,50.1
2023-01-23T23:30:23.403Z,50.1
2023-01-23T23:35:47.265Z,49.9
2023-01-23T23:41:09.768Z,49.9
2023-01-23T23:46:33.825Z,49.9
2023-01-23T23:51:56.902Z,49.8
2023-01-23T23:57:03.897Z,49.8
